createdAt,value
2023-02-05T06:18:44.410Z,9.70
2023-02-05T06:28:44.354Z,9.06
2023-02-05T06:38:44.389Z,10.32
2023-02-05T06:48:44.554Z,11.83
2023-02-05T06:58:44.464Z,10.70
2023-02-05T07:08:44.445Z,10.65
2023-02-05T07:18:44.479Z,10.23
2023-02-05T07:28:44.488Z,6.52
2023-02-05T07:38:44.522Z,6.26
2023-02-05T07:48:44.405Z,7.31
2023-02-05T07:58:44.453Z,7.19
2023-02-05T08:08:44.417Z,9.01
2023-02-05T08:18:44.593Z,7.88
2023-02-05T08:28:44.428Z,8.49
2023-02-05T08:38:44.519Z,7.95
2023-02-05T08:48:44.679Z,7.84
2023-02-05T08:58:44.878Z,3.76
2023-02-05T09:08:44.815Z,6.77
2023-02-05T09:18:44.910Z,11.81
2023-02-05T09:28:44.860Z,12.48
2023-02-05T09:38:44.799Z,9.72
2023-02-05T09:48:44.892Z,9.00
2023-02-05T09:58:44.742Z,10.09
2023-02-05T10:08:44.876Z,10.07
2023-02-05T10:18:44.952Z,8.09
2023-02-05T10:28:44.940Z,12.95
2023-02-05T10:38:44.883Z,11.52
2023-02-05T10:48:44.831Z,8.05
2023-02-05T10:58:44.802Z,5.26
2023-02-05T11:08:44.915Z,5.28
2023-02-05T11:18:44.843Z,8.86
2023-02-05T11:28:44.778Z,11.22
2023-02-05T11:38:44.802Z,8.39
2023-02-05T11:48:45.781Z,3.96
2023-02-05T11:58:44.818Z,3.86
2023-02-05T12:08:44.905Z,5.65
2023-02-05T12:18:44.804Z,5.66
2023-02-05T12:28:44.821Z,5.38
2023-02-05T12:38:44.858Z,4.10
2023-02-05T12:48:44.833Z,3.93
2023-02-05T12:58:44.859Z,6.65
2023-02-05T13:08:44.966Z,11.63
2023-02-05T13:18:44.877Z,10.61
2023-02-05T13:28:44.846Z,6.20
2023-02-05T13:38:44.916Z,5.13
2023-02-05T13:48:44.908Z,6.44
2023-02-05T13:58:44.939Z,6.34
2023-02-05T14:08:44.896Z,4.90
2023-02-05T14:18:45.060Z,2.26
2023-02-05T14:28:44.978Z,1.08
2023-02-05T14:38:44.918Z,0.00
2023-02-05T14:48:45.001Z,0.00
2023-02-05T14:58:44.950Z,0.00
2023-02-05T15:08:44.891Z,0.00
2023-02-05T15:18:45.005Z,0.70
2023-02-05T15:28:45.008Z,0.05
2023-02-05T15:38:45.053Z,0.59
2023-02-05T15:48:45.059Z,0.13
2023-02-05T15:58:45.067Z,0.80
2023-02-05T16:08:45.258Z,0.00
2023-02-05T16:18:45.010Z,1.15
2023-02-05T16:28:44.994Z,0.97
2023-02-05T16:38:45.105Z,0.00
2023-02-05T16:48:45.102Z,0.00
2023-02-05T16:58:45.159Z,0.00
2023-02-05T17:08:45.164Z,0.10
2023-02-05T17:18:45.291Z,0.00
2023-02-05T17:28:45.095Z,0.00
2023-02-05T17:38:45.194Z,0.00
2023-02-05T17:48:45.118Z,0.00
2023-02-05T17:58:45.087Z,0.00
2023-02-05T18:08:45.142Z,0.00
2023-02-05T18:18:45.082Z,0.03
2023-02-05T18:28:45.173Z,1.39
2023-02-05T18:38:45.238Z,6.54
2023-02-05T18:48:45.073Z,5.84
2023-02-05T18:58:45.206Z,3.13
2023-02-05T19:08:45.212Z,5.10
2023-02-05T19:18:45.273Z,6.74
